Fayette, AL (35555)

9:42 AM CDT on July 28, 2016 (GMT -0500)
Bevill State | | Change Station

Elev 423 ft 33.73 °N, 87.82 °W | Updated 12 minutes ago

Mostly Cloudy
Mostly Cloudy
77.8 °F
Feels Like 80 °F
N
6.0
Wind Variable Wind from SSW
Gusts 9.0 mph

Today
High -- | Low -- °F
--% Chance of Precip.
Yesterday
High -- | Low -- °F
Precip. -- in
Pressure 30.00 in
Visibility -9999.0 miles
Clouds Mostly Cloudy 1600 ft
Mostly Cloudy 2100 ft
Heat Index 80 °F
Dew Point 73 °F
Humidity 86%
Rainfall 0.00 in
Snow Depth Not available.
6:00 AM 7:54 PM
Waning Crescent, 31% visible
METAR KJFX 281435Z AUTO 25007KT BKN016 BKN021 28/23 A3000 RMK AO2 PWINO
Pressure 30.00 in
Visibility -9999.0 miles
Clouds Mostly Cloudy 1600 ft
Mostly Cloudy 2100 ft
Heat Index 80 °F
Dew Point 73 °F
Humidity 86%
Rainfall 0.00 in
Snow Depth Not available.
6:00 AM 7:54 PM
Waning Crescent, 31% visible
METAR KJFX 281435Z AUTO 25007KT BKN016 BKN021 28/23 A3000 RMK AO2 PWINO

10-Day Weather Forecast

Almanac

Astronomy

Jul. 28, 2016 Rise Set
Actual Time
Civil Twilight
Nautical Twilight
Astronomical Twilight
Moon
Length of Visible Light
Length of Day
Tomorrow will be .
, % of the Moon is Illuminated

Today's Extremes

State Highs State Lows

Community

WunderPhotos

Upload Photos

1,928,117 photos uploaded!

WunderBlog® & News

Nearby

Air Quality

  Air Quality AQ Index Pollutant
Not available.

Snow Depth

Station Depth Elevation

Earthquake Activity

City Distance Mag. Time & Date
Minimum magnitude displayed is 2.5.

Coastal Water Temperatures

Place Temperature

Stations

Nearby Weather Stations

Station Location Temp. Windchill Dew Point Humidity Wind Precip. Elev Updated Type
                   

Watches & Warnings

There are currently no watches in effect.